Terminal Aerodrome Forecast
Issued by NWS Twin Cities, MN

Home | Current Version | Previous Version | Graphics & Text | Print | Product List | Glossary Off
Versions: 1 2 3 4 5 6 7 8 9 10 11 12 13 14 15 16 17

118
FTUS43 KMPX 182321
TAFEAU
TAF
KEAU 182321Z 1900/1924 28005KT P6SM SCT080 BKN120
     FM190200 00000KT P6SM SKC
     FM190900 00000KT 2SM BR SCT002
      TEMPO 1910/1913 1/4SM FG VV002
     FM191330 26004KT P6SM SKC=

USA.gov is the U.S. government's official web portal to all federal, state and local government web resources and services.